Terminal Aerodrome Forecast
Issued by NWS

Home | Current Version | Previous Version | Text Only | Print | Product List | Glossary On
Versions: 1 2 3 4 5 6 7 8 9 10 11 12 13 14 15
509
FTAK31 PAJN 201137
TAFAJN
TAF
PAJN 201137Z 2012/2112 09010KT P6SM -SHRA FEW009 BKN035 OVC050
     FM201500 09007KT P6SM FEW009 OVC035
     FM201800 12008KT P6SM SCT035 OVC050
     FM202300 10009KT P6SM -RA SCT035 OVC050
     FM210500 11012KT 5SM -RA BR BKN035 OVC050
     FM210900 11012G22KT 4SM RA BR BKN015 OVC025 WS020/13030KT=

USA.gov is the U.S. government's official web portal to all federal, state and local government web resources and services.